CheckWX is a tool to help pilots better visualize weather data.  It is not intended as a substitute for an official pre-flight weather briefing.

20:36:53 UTC

KIZG METAR
Eastern Slopes Regional Airport
Fryeburg, Maine, USA
Current

43 mins ago

KIZG 161954Z AUTO 23005KT 10SM CLR 27/16 A2997 RMK AO2 SLP149 T02670161
Observed
Jul-16 @ 19:54 UTC
Wind
  • 230° at 5 KTS
Visibility
10 SM
Flight Rules
VFR
Cloud Levels
  • Clear skies
Temperature
27°C / 81°F
Dewpoint
16°C / 61°F
Heat Index
28°C / 82°F
Humidity
51%
Altimeter
29.97" Hg
Pressure
1014.92 hPa
Previous

2 hours ago

KIZG 161854Z AUTO 22007KT 10SM CLR 29/15 A2998 RMK AO2 SLP150 T02890150
Observed
Jul-16 @ 18:54 UTC
Wind
  • 220° at 7 KTS
Visibility
10 SM
Flight Rules
VFR
Cloud Levels
  • Clear skies
Temperature
29°C / 84°F
Dewpoint
15°C / 59°F
Heat Index
29°C / 84°F
Humidity
43%
Altimeter
29.98" Hg
Pressure
1015.22 hPa
Previous

3 hours ago

KIZG 161754Z AUTO 20009G14KT 10SM CLR 28/14 A3000 RMK AO2 SLP156 T02830144 10289 20183 58013
Observed
Jul-16 @ 17:54 UTC
Wind
  • 200° at 9 KTS
  • Gusting to 14 KTS
Visibility
10 SM
Flight Rules
VFR
Cloud Levels
  • Clear skies
Temperature
28°C / 82°F
Dewpoint
14°C / 57°F
Heat Index
28°C / 82°F
Humidity
42%
Altimeter
30" Hg
Pressure
1015.92 hPa